Buoy 46762

sailwx.info

Track history (hours):
 
Tides and Currents Weather Stations Pressure Air Temp Water Temp Dewpoint Dewpoint Depression Visibility Wind Speed Wind Dir Waves Ship Positions

Drifting buoy 46762

Last reported at 2015-May-04 22:00 UTC. Time now 2015-May-05 00:13 UTC.
Position N 55°20' W 152°43'.

Barometer 1017.9 mb
Water temperature 6.4 ° C

Date/timePositionNaut miles runAvg speedWind from/ knotsBaromVisibWave heightAir tempDewpointWater temp
2015-May-04 22:00N 55°20' W 152°43'1 1.5 1017.9 6.4
2015-May-04 21:00N 55°20' W 152°41'1 0.5 1018.2 6.4
2015-May-04 19:00N 55°19' W 152°40'1 0.5 1018.3 6.4
2015-May-04 17:00N 55°20' W 152°39'1 1.0 1018.2 6.4
2015-May-04 16:00N 55°19' W 152°37'1 0.8 1018.0 6.4
2015-May-04 15:00N 55°18' W 152°37'3 1.5 1018.0 6.4
2015-May-04 13:00N 55°21' W 152°34'1 0.7 1018.3 6.4
2015-May-04 11:00N 55°21' W 152°36'0 0.0 1018.4 6.4
2015-May-04 10:00N 55°21' W 152°36'5 0.9 1018.6 6.5
2015-May-04 05:00N 55°25' W 152°30'0 0.0 1018.3 6.5
2015-May-04 04:00N 55°25' W 152°30'1 1.2 1018.3 6.5
2015-May-04 03:00N 55°25' W 152°28'1 1.3 1018.5 6.5
2015-May-04 02:00N 55°26' W 152°28'0 0.1 1018.3 6.6
2015-May-04 00:00N 55°26' W 152°28'6 1.2 1018.6 6.5
2015-May-03 19:00N 55°32' W 152°25'6 1.3 1017.6 6.4
2015-May-03 14:00N 55°38' W 152°29'9 1.3 1015.9 6.4
2015-May-03 07:00N 55°46' W 152°21'0 0.0 1013.9 6.4
2015-May-03 06:00N 55°46' W 152°21'4 1.0 1013.5 6.4
2015-May-03 02:00N 55°49' W 152°25'2 1.6 1012.4 6.4
2015-May-03 01:00N 55°50' W 152°24'3 1.6 1012.3 6.4
2015-May-02 23:00N 55°53' W 152°23'7 1.0 1012.3 6.4
2015-May-02 16:00N 56°00' W 152°23'0 0.5 1013.1 6.4
2015-May-02 15:00N 56°00' W 152°23'14 1.3 1013.3 6.4
2015-May-02 04:00N 56°14' W 152°17'4 4.1 1017.4 6.7
2015-May-02 03:00N 56°17' W 152°13'0 0.0 1017.7 6.7
2015-May-02 02:00N 56°17' W 152°13'7 1.1 1017.7 6.7
2015-May-01 20:00N 56°23' W 152°08'2 0.9 1017.4 6.4
2015-May-01 18:00N 56°25' W 152°05'2 2.2 1016.8 6.4
2015-May-01 17:00N 56°27' W 152°04'0 0.0 1016.5 6.4
2015-May-01 16:00N 56°27' W 152°04'3 3.0 1016.2 6.4
2015-May-01 15:00N 56°29' W 152°01'8 1.3 1015.9 6.4
2015-May-01 09:00N 56°35' W 151°52'0 0.0 1014.0 6.5
2015-May-01 07:00N 56°35' W 151°52'3 1.3 1013.2 6.6
2015-May-01 05:00N 56°38' W 151°50'1 1.3 1012.1 6.6
2015-May-01 04:00N 56°39' W 151°49'0 0.3 1011.7 6.6
2015-May-01 03:00N 56°39' W 151°50'3 1.1 1011.4 6.6
2015-May-01 00:00N 56°41' W 151°45'8 2.0 1009.8 6.5
2015-Apr-30 20:00N 56°47' W 151°37'0 0.0 1006.4 6.4
2015-Apr-30 19:00N 56°47' W 151°37'1 0.6 1005.1 6.4
2015-Apr-30 18:00N 56°48' W 151°36'0 0.0 1004.1 6.4
2015-Apr-30 17:00N 56°48' W 151°36'2 1.9 1003.2 6.4
2015-Apr-30 16:00N 56°50' W 151°34'3 3.0 1002.2 6.4
2015-Apr-30 15:00N 56°52' W 151°32'1 0.7 1001.1 6.4
2015-Apr-30 14:00N 56°52' W 151°31'1 0.9 1000.7 6.4
2015-Apr-30 13:00N 56°52' W 151°32'4 1.9 1000.2 6.4
2015-Apr-30 11:00N 56°54' W 151°27'3 0.9 999.8 6.4
2015-Apr-30 08:00N 56°55' W 151°22'2 1.5 1000.2 6.4
2015-Apr-30 07:00N 56°55' W 151°19'0 0.0 1000.5 6.4
2015-Apr-30 06:00N 56°55' W 151°19'3 0.7 1000.7 6.4
2015-Apr-30 02:00N 56°58' W 151°17'3 0.9 1001.5 6.4
2015-Apr-29 23:00N 56°59' W 151°13'2 1.6 1001.4 6.4
2015-Apr-29 22:00N 56°58' W 151°10'0 0.0 1001.0 6.4
2015-Apr-29 21:00N 56°58' W 151°10'3 0.7 1000.9 6.4
2015-Apr-29 17:00N 56°59' W 151°05'2 0.5 999.5 6.2
2015-Apr-29 13:00N 57°00' W 151°02'0 0.0 998.9 6.2
2015-Apr-29 12:00N 57°00' W 151°02'3 0.7 999.2 6.2
2015-Apr-29 07:00N 57°01' W 150°56'2 0.8 999.6 6.3
2015-Apr-29 05:00N 57°02' W 150°53'5 0.6 999.9 6.4
2015-Apr-28 20:00N 57°04' W 150°44'2 0.5 1000.0 6.2
2015-Apr-28 15:00N 57°04' W 150°40'1 0.6 1000.2 6.1
2015-Apr-28 14:00N 57°04' W 150°39'5 0.5 1000.1 6.2
2015-Apr-28 05:00N 57°04' W 150°31'0 0.0 1001.1 6.2
2015-Apr-28 04:00N 57°04' W 150°31'4 0.9 1001.4 6.2
2015-Apr-28 00:00N 57°04' W 150°24'3 0.4 1001.8 6.2
2015-Apr-27 17:00N 57°04' W 150°19'1 1.4 1000.3 6.0
2015-Apr-27 16:00N 57°03' W 150°19'2 1.0 999.9 6.0
2015-Apr-27 14:00N 57°01' W 150°16'5 0.6 999.3 6.0
2015-Apr-27 06:00N 56°58' W 150°09'3 2.9 995.1 6.0
2015-Apr-27 05:00N 56°58' W 150°03'0 0.0 994.1 6.0
2015-Apr-27 04:00N 56°58' W 150°03'1 1.4 993.3 6.0
2015-Apr-27 03:00N 56°56' W 150°05'0 0.0 992.7 6.0
2015-Apr-27 02:00N 56°56' W 150°05'2 1.2 992.2 6.0
2015-Apr-27 00:00N 56°56' W 150°00'1 0.5 991.3 6.0
2015-Apr-26 22:00N 56°55' W 149°59'3 0.9 990.8 6.0
2015-Apr-26 19:00N 56°54' W 149°56'2 0.9 990.4 6.0
2015-Apr-26 17:00N 56°54' W 149°52'3 2.6 990.5 6.0
2015-Apr-26 16:00N 56°52' W 149°48'1 0.7 990.5 6.0
2015-Apr-26 14:00N 56°51' W 149°49'13 1.1 991.4 6.0
2015-Apr-26 02:00N 56°47' W 149°27'2 0.7 999.7 6.1
2015-Apr-25 23:00N 56°46' W 149°25'2 0.8 1001.1 6.1
2015-Apr-25 21:00N 56°47' W 149°24'6 2.8 1002.1 6.1
2015-Apr-25 19:00N 56°44' W 149°16'2 0.4 1003.0 6.1
2015-Apr-25 14:00N 56°44' W 149°13'2 1.6 1004.4 6.1
2015-Apr-25 13:00N 56°42' W 149°12'4 1.8 1004.6 6.1
2015-Apr-25 11:00N 56°39' W 149°08'0 0.0 1005.5 6.1
2015-Apr-25 10:00N 56°39' W 149°08'3 0.6 1005.8 6.1
2015-Apr-25 05:00N 56°40' W 149°03'2 0.3 1006.3 6.1
2015-Apr-25 00:00N 56°40' W 148°60'2 2.2 1006.8 6.2
2015-Apr-24 23:00N 56°40' W 149°04'   1007.2 6.2
Track history (hours):
 
Tides and Currents Weather Stations Pressure Air Temp Water Temp Dewpoint Dewpoint Depression Visibility Wind Speed Wind Dir Waves Ship Positions

Drifting buoy 46762

Last reported at 2015-May-04 22:00 UTC. Time now 2015-May-05 00:13 UTC.
Position N 55°20' W 152°43'.

Barometer 1017.9 mb
Water temperature 6.4 ° C

Date/timePositionNaut miles runAvg speedWind from/ knotsBaromVisibWave heightAir tempDewpointWater temp
2015-May-04 22:00N 55°20' W 152°43'1 1.5 1017.9 6.4
2015-May-04 21:00N 55°20' W 152°41'1 0.5 1018.2 6.4
2015-May-04 19:00N 55°19' W 152°40'1 0.5 1018.3 6.4
2015-May-04 17:00N 55°20' W 152°39'1 1.0 1018.2 6.4
2015-May-04 16:00N 55°19' W 152°37'1 0.8 1018.0 6.4
2015-May-04 15:00N 55°18' W 152°37'3 1.5 1018.0 6.4
2015-May-04 13:00N 55°21' W 152°34'1 0.7 1018.3 6.4
2015-May-04 11:00N 55°21' W 152°36'0 0.0 1018.4 6.4
2015-May-04 10:00N 55°21' W 152°36'5 0.9 1018.6 6.5
2015-May-04 05:00N 55°25' W 152°30'0 0.0 1018.3 6.5
2015-May-04 04:00N 55°25' W 152°30'1 1.2 1018.3 6.5
2015-May-04 03:00N 55°25' W 152°28'1 1.3 1018.5 6.5
2015-May-04 02:00N 55°26' W 152°28'0 0.1 1018.3 6.6
2015-May-04 00:00N 55°26' W 152°28'6 1.2 1018.6 6.5
2015-May-03 19:00N 55°32' W 152°25'6 1.3 1017.6 6.4
2015-May-03 14:00N 55°38' W 152°29'9 1.3 1015.9 6.4
2015-May-03 07:00N 55°46' W 152°21'0 0.0 1013.9 6.4
2015-May-03 06:00N 55°46' W 152°21'4 1.0 1013.5 6.4
2015-May-03 02:00N 55°49' W 152°25'2 1.6 1012.4 6.4
2015-May-03 01:00N 55°50' W 152°24'3 1.6 1012.3 6.4
2015-May-02 23:00N 55°53' W 152°23'7 1.0 1012.3 6.4
2015-May-02 16:00N 56°00' W 152°23'0 0.5 1013.1 6.4
2015-May-02 15:00N 56°00' W 152°23'14 1.3 1013.3 6.4
2015-May-02 04:00N 56°14' W 152°17'4 4.1 1017.4 6.7
2015-May-02 03:00N 56°17' W 152°13'0 0.0 1017.7 6.7
2015-May-02 02:00N 56°17' W 152°13'7 1.1 1017.7 6.7
2015-May-01 20:00N 56°23' W 152°08'2 0.9 1017.4 6.4
2015-May-01 18:00N 56°25' W 152°05'2 2.2 1016.8 6.4
2015-May-01 17:00N 56°27' W 152°04'0 0.0 1016.5 6.4
2015-May-01 16:00N 56°27' W 152°04'3 3.0 1016.2 6.4
2015-May-01 15:00N 56°29' W 152°01'8 1.3 1015.9 6.4
2015-May-01 09:00N 56°35' W 151°52'0 0.0 1014.0 6.5
2015-May-01 07:00N 56°35' W 151°52'3 1.3 1013.2 6.6
2015-May-01 05:00N 56°38' W 151°50'1 1.3 1012.1 6.6
2015-May-01 04:00N 56°39' W 151°49'0 0.3 1011.7 6.6
2015-May-01 03:00N 56°39' W 151°50'3 1.1 1011.4 6.6
2015-May-01 00:00N 56°41' W 151°45'8 2.0 1009.8 6.5
2015-Apr-30 20:00N 56°47' W 151°37'0 0.0 1006.4 6.4
2015-Apr-30 19:00N 56°47' W 151°37'1 0.6 1005.1 6.4
2015-Apr-30 18:00N 56°48' W 151°36'0 0.0 1004.1 6.4
2015-Apr-30 17:00N 56°48' W 151°36'2 1.9 1003.2 6.4
2015-Apr-30 16:00N 56°50' W 151°34'3 3.0 1002.2 6.4
2015-Apr-30 15:00N 56°52' W 151°32'1 0.7 1001.1 6.4
2015-Apr-30 14:00N 56°52' W 151°31'1 0.9 1000.7 6.4
2015-Apr-30 13:00N 56°52' W 151°32'4 1.9 1000.2 6.4
2015-Apr-30 11:00N 56°54' W 151°27'3 0.9 999.8 6.4
2015-Apr-30 08:00N 56°55' W 151°22'2 1.5 1000.2 6.4
2015-Apr-30 07:00N 56°55' W 151°19'0 0.0 1000.5 6.4
2015-Apr-30 06:00N 56°55' W 151°19'3 0.7 1000.7 6.4
2015-Apr-30 02:00N 56°58' W 151°17'3 0.9 1001.5 6.4
2015-Apr-29 23:00N 56°59' W 151°13'2 1.6 1001.4 6.4
2015-Apr-29 22:00N 56°58' W 151°10'0 0.0 1001.0 6.4
2015-Apr-29 21:00N 56°58' W 151°10'3 0.7 1000.9 6.4
2015-Apr-29 17:00N 56°59' W 151°05'2 0.5 999.5 6.2
2015-Apr-29 13:00N 57°00' W 151°02'0 0.0 998.9 6.2
2015-Apr-29 12:00N 57°00' W 151°02'3 0.7 999.2 6.2
2015-Apr-29 07:00N 57°01' W 150°56'2 0.8 999.6 6.3
2015-Apr-29 05:00N 57°02' W 150°53'5 0.6 999.9 6.4
2015-Apr-28 20:00N 57°04' W 150°44'2 0.5 1000.0 6.2
2015-Apr-28 15:00N 57°04' W 150°40'1 0.6 1000.2 6.1
2015-Apr-28 14:00N 57°04' W 150°39'5 0.5 1000.1 6.2
2015-Apr-28 05:00N 57°04' W 150°31'0 0.0 1001.1 6.2
2015-Apr-28 04:00N 57°04' W 150°31'4 0.9 1001.4 6.2
2015-Apr-28 00:00N 57°04' W 150°24'3 0.4 1001.8 6.2
2015-Apr-27 17:00N 57°04' W 150°19'1 1.4 1000.3 6.0
2015-Apr-27 16:00N 57°03' W 150°19'2 1.0 999.9 6.0
2015-Apr-27 14:00N 57°01' W 150°16'5 0.6 999.3 6.0
2015-Apr-27 06:00N 56°58' W 150°09'3 2.9 995.1 6.0
2015-Apr-27 05:00N 56°58' W 150°03'0 0.0 994.1 6.0
2015-Apr-27 04:00N 56°58' W 150°03'1 1.4 993.3 6.0
2015-Apr-27 03:00N 56°56' W 150°05'0 0.0 992.7 6.0
2015-Apr-27 02:00N 56°56' W 150°05'2 1.2 992.2 6.0
2015-Apr-27 00:00N 56°56' W 150°00'1 0.5 991.3 6.0
2015-Apr-26 22:00N 56°55' W 149°59'3 0.9 990.8 6.0
2015-Apr-26 19:00N 56°54' W 149°56'2 0.9 990.4 6.0
2015-Apr-26 17:00N 56°54' W 149°52'3 2.6 990.5 6.0
2015-Apr-26 16:00N 56°52' W 149°48'1 0.7 990.5 6.0
2015-Apr-26 14:00N 56°51' W 149°49'13 1.1 991.4 6.0
2015-Apr-26 02:00N 56°47' W 149°27'2 0.7 999.7 6.1
2015-Apr-25 23:00N 56°46' W 149°25'2 0.8 1001.1 6.1
2015-Apr-25 21:00N 56°47' W 149°24'6 2.8 1002.1 6.1
2015-Apr-25 19:00N 56°44' W 149°16'2 0.4 1003.0 6.1
2015-Apr-25 14:00N 56°44' W 149°13'2 1.6 1004.4 6.1
2015-Apr-25 13:00N 56°42' W 149°12'4 1.8 1004.6 6.1
2015-Apr-25 11:00N 56°39' W 149°08'0 0.0 1005.5 6.1
2015-Apr-25 10:00N 56°39' W 149°08'3 0.6 1005.8 6.1
2015-Apr-25 05:00N 56°40' W 149°03'2 0.3 1006.3 6.1
2015-Apr-25 00:00N 56°40' W 148°60'2 2.2 1006.8 6.2
2015-Apr-24 23:00N 56°40' W 149°04'   1007.2 6.2

Dump ship's entire track history